createdAt,value
2023-11-20T00:40:07.205Z,1010.68
2023-11-20T00:45:03.064Z,1010.83
2023-11-20T00:50:03.069Z,1010.83
2023-11-20T00:55:02.965Z,1010.9
2023-11-20T01:00:03.022Z,1010.93
2023-11-20T01:05:03.016Z,1010.84
2023-11-20T01:10:02.981Z,1010.72
2023-11-20T01:15:04.784Z,1010.82
2023-11-20T01:20:02.995Z,1010.92
2023-11-20T01:25:02.961Z,1011.04
2023-11-20T01:30:03.084Z,1011.04
2023-11-20T01:35:02.967Z,1011.06
2023-11-20T01:40:03.093Z,1011.13
2023-11-20T01:45:02.939Z,1011.12
2023-11-20T01:50:03.020Z,1011.07
2023-11-20T01:55:02.966Z,1011.0
2023-11-20T02:00:03.141Z,1011.03
2023-11-20T02:05:02.941Z,1011.0
2023-11-20T02:10:03.127Z,1011.01
2023-11-20T02:15:02.923Z,1010.95
2023-11-20T02:20:03.035Z,1010.84
2023-11-20T02:25:03.005Z,1010.71
2023-11-20T02:30:08.202Z,1010.71
2023-11-20T02:35:02.946Z,1010.73
2023-11-20T02:40:03.142Z,1010.83
2023-11-20T02:45:02.991Z,1010.74
2023-11-20T02:50:03.063Z,1010.7
2023-11-20T02:55:02.997Z,1010.66
2023-11-20T03:00:04.143Z,1010.62
2023-11-20T03:05:03.228Z,1010.64
2023-11-20T03:10:03.103Z,1010.63
2023-11-20T03:15:02.954Z,1010.61
2023-11-20T03:20:02.995Z,1010.7
2023-11-20T03:25:03.098Z,1010.69
2023-11-20T03:30:02.869Z,1010.54
2023-11-20T03:35:02.896Z,1010.46
2023-11-20T03:40:03.058Z,1010.43
2023-11-20T03:45:02.905Z,1010.47
2023-11-20T03:50:02.971Z,1010.39
2023-11-20T03:55:03.043Z,1010.31
2023-11-20T04:00:03.112Z,1010.28
2023-11-20T04:05:03.085Z,1010.32
2023-11-20T04:10:03.099Z,1010.35
2023-11-20T04:15:03.102Z,1010.32
2023-11-20T04:20:03.028Z,1010.2
2023-11-20T04:25:02.977Z,1010.18
2023-11-20T04:30:03.156Z,1010.11
2023-11-20T04:35:02.941Z,1010.04
2023-11-20T04:40:03.114Z,1010.08
2023-11-20T04:45:03.019Z,1010.14
2023-11-20T04:50:03.149Z,1010.0
2023-11-20T04:55:03.012Z,1009.91
2023-11-20T05:00:03.046Z,1009.91
2023-11-20T05:05:03.044Z,1010.01
2023-11-20T05:10:03.082Z,1009.95
2023-11-20T05:15:02.910Z,1009.91
2023-11-20T05:20:02.981Z,1009.87
2023-11-20T05:25:02.931Z,1009.77
2023-11-20T05:30:02.953Z,1009.75
2023-11-20T05:35:02.957Z,1009.84
2023-11-20T05:40:02.997Z,1009.84
2023-11-20T05:45:02.906Z,1009.86
2023-11-20T05:50:03.036Z,1009.87
2023-11-20T05:55:02.928Z,1009.86
2023-11-20T06:00:02.946Z,1009.79
2023-11-20T06:05:03.181Z,1009.76
2023-11-20T06:10:03.130Z,1009.77
2023-11-20T06:15:02.960Z,1009.73
2023-11-20T06:20:03.049Z,1009.71
2023-11-20T06:25:03.002Z,1009.67
2023-11-20T06:30:03.182Z,1009.62
2023-11-20T06:35:02.917Z,1009.54
2023-11-20T06:40:03.011Z,1009.54
2023-11-20T06:45:02.935Z,1009.59
2023-11-20T06:50:03.050Z,1009.68
2023-11-20T06:55:04.295Z,1009.73
2023-11-20T07:00:03.005Z,1009.81
2023-11-20T07:05:03.086Z,1009.84
2023-11-20T07:10:03.074Z,1009.82
2023-11-20T07:15:02.918Z,1009.97
2023-11-20T07:20:03.236Z,1010.12
2023-11-20T07:25:03.088Z,1010.16
2023-11-20T07:30:02.966Z,1010.21
2023-11-20T07:35:02.939Z,1010.2
2023-11-20T07:40:03.086Z,1010.09
2023-11-20T07:45:02.923Z,1010.05
2023-11-20T07:50:03.156Z,1010.03
2023-11-20T07:55:03.077Z,1010.1
2023-11-20T08:00:02.946Z,1010.2
2023-11-20T08:05:03.124Z,1010.3
2023-11-20T08:10:05.096Z,1010.38
2023-11-20T08:15:02.967Z,1010.38
2023-11-20T08:20:03.025Z,1010.49
2023-11-20T08:25:02.972Z,1010.62
2023-11-20T08:30:03.045Z,1010.71
2023-11-20T08:35:02.967Z,1010.81
2023-11-20T08:40:03.142Z,1010.9
2023-11-20T08:45:02.974Z,1011.19
2023-11-20T08:50:03.015Z,1011.29
2023-11-20T08:55:03.028Z,1011.38
2023-11-20T09:00:03.206Z,1011.36
2023-11-20T09:05:02.977Z,1011.37
2023-11-20T09:10:03.121Z,1011.42
2023-11-20T09:15:02.929Z,1011.44
2023-11-20T09:20:03.141Z,1011.64
2023-11-20T09:25:05.254Z,1011.77
2023-11-20T09:30:03.092Z,1011.78
2023-11-20T09:35:02.938Z,1011.78
2023-11-20T09:40:03.109Z,1011.7
2023-11-20T09:45:02.904Z,1011.66
2023-11-20T09:50:03.019Z,1011.63
2023-11-20T09:55:02.961Z,1011.59
2023-11-20T10:00:03.107Z,1011.55
2023-11-20T10:05:03.061Z,1011.58
2023-11-20T10:10:02.990Z,1011.63
2023-11-20T10:15:02.944Z,1011.62
2023-11-20T10:20:03.084Z,1011.69
2023-11-20T10:25:03.011Z,1011.7
2023-11-20T10:30:07.954Z,1011.65
2023-11-20T10:35:04.862Z,1011.75
2023-11-20T10:40:02.992Z,1011.85
2023-11-20T10:45:02.975Z,1011.91
2023-11-20T10:50:03.034Z,1011.97
2023-11-20T10:55:03.008Z,1012.02
2023-11-20T11:00:03.154Z,1012.2
2023-11-20T11:05:02.940Z,1012.23
2023-11-20T11:10:03.086Z,1012.12
2023-11-20T11:15:07.997Z,1012.0
2023-11-20T11:20:03.074Z,1011.94
2023-11-20T11:25:02.935Z,1011.85
2023-11-20T11:30:03.090Z,1011.8
2023-11-20T11:35:02.907Z,1011.73
2023-11-20T11:40:03.009Z,1011.72
2023-11-20T11:45:02.985Z,1011.85
2023-11-20T11:50:04.861Z,1011.93
2023-11-20T11:55:02.983Z,1011.93
2023-11-20T12:00:03.105Z,1012.0
2023-11-20T12:05:03.095Z,1012.14
2023-11-20T12:10:03.421Z,1012.2
2023-11-20T12:15:02.953Z,1012.21
2023-11-20T12:20:03.016Z,1012.34
2023-11-20T12:25:02.965Z,1012.32
2023-11-20T12:30:02.964Z,1012.33
2023-11-20T12:35:02.925Z,1012.35
2023-11-20T12:40:03.125Z,1012.48
2023-11-20T12:45:03.172Z,1012.54
2023-11-20T12:50:03.031Z,1012.51
2023-11-20T12:55:02.954Z,1012.54
2023-11-20T13:00:02.997Z,1012.56
2023-11-20T13:05:03.058Z,1012.57
2023-11-20T13:10:03.282Z,1012.53
2023-11-20T13:15:03.022Z,1012.62
2023-11-20T13:20:03.120Z,1012.61
2023-11-20T13:25:04.017Z,1012.53
2023-11-20T13:30:03.138Z,1012.54
2023-11-20T13:35:03.194Z,1012.65
2023-11-20T13:40:03.167Z,1012.54
2023-11-20T13:45:02.984Z,1012.44
2023-11-20T13:50:03.096Z,1012.43
2023-11-20T13:55:02.972Z,1012.38
2023-11-20T14:00:14.526Z,1012.36
2023-11-20T14:05:03.084Z,1012.33
2023-11-20T14:10:03.717Z,1012.25
2023-11-20T14:15:03.099Z,1012.26
2023-11-20T14:20:04.181Z,1012.21
2023-11-20T14:25:03.300Z,1012.19
2023-11-20T14:30:04.063Z,1012.26
2023-11-20T14:35:05.967Z,1012.24
2023-11-20T14:40:03.103Z,1012.24
2023-11-20T14:45:02.943Z,1012.18
2023-11-20T14:50:03.123Z,1012.24
2023-11-20T14:55:04.270Z,1012.28
2023-11-20T15:00:03.117Z,1012.21
2023-11-20T15:05:03.187Z,1012.08
2023-11-20T15:10:03.976Z,1012.1
2023-11-20T15:15:02.986Z,1012.11
2023-11-20T15:20:03.174Z,1011.96
2023-11-20T15:25:03.129Z,1011.9
2023-11-20T15:30:03.063Z,1011.84
2023-11-20T15:35:02.940Z,1011.8
2023-11-20T15:40:03.185Z,1011.74
2023-11-20T15:45:02.871Z,1011.71
2023-11-20T15:50:02.991Z,1011.57
2023-11-20T15:55:02.945Z,1011.41
2023-11-20T16:00:03.150Z,1011.24
2023-11-20T16:05:03.036Z,1011.04
2023-11-20T16:10:02.964Z,1010.96
2023-11-20T16:15:02.990Z,1010.98
2023-11-20T16:20:02.953Z,1010.94
2023-11-20T16:25:03.017Z,1010.81
2023-11-20T16:30:02.960Z,1010.69
2023-11-20T16:35:02.869Z,1010.6
2023-11-20T16:40:03.021Z,1010.6
2023-11-20T16:45:02.943Z,1010.64
2023-11-20T16:50:03.094Z,1010.6
2023-11-20T16:55:03.167Z,1010.53
2023-11-20T17:00:03.256Z,1010.56
2023-11-20T17:05:08.738Z,1010.46
2023-11-20T17:10:06.365Z,1010.44
2023-11-20T17:18:34.476Z,1010.34
2023-11-20T17:35:05.226Z,1010.15
2023-11-20T17:40:08.667Z,1010.14
2023-11-20T17:45:03.131Z,1010.12
2023-11-20T17:50:11.271Z,1010.2
2023-11-20T17:55:03.514Z,1010.13
2023-11-20T18:00:04.474Z,1010.12
2023-11-20T18:05:03.457Z,1010.01
2023-11-20T18:10:04.120Z,1009.95
2023-11-20T18:15:03.133Z,1009.88
2023-11-20T18:20:04.001Z,1009.85
2023-11-20T18:25:03.254Z,1009.76
2023-11-20T18:30:06.499Z,1009.76
2023-11-20T18:35:03.184Z,1009.69
2023-11-20T18:40:04.017Z,1009.55
2023-11-20T18:45:03.376Z,1009.38
2023-11-20T18:50:03.988Z,1009.32
2023-11-20T18:55:03.291Z,1009.2
2023-11-20T19:00:04.017Z,1009.09
2023-11-20T19:05:03.328Z,1009.05
2023-11-20T19:10:04.139Z,1008.95
2023-11-20T19:15:03.318Z,1009.05
2023-11-20T19:20:04.029Z,1008.92
2023-11-20T19:25:03.308Z,1009.0
2023-11-20T19:30:04.111Z,1008.94
2023-11-20T19:35:03.159Z,1008.96
2023-11-20T19:40:04.153Z,1008.94
2023-11-20T19:45:03.225Z,1008.91
2023-11-20T19:50:04.151Z,1008.97
2023-11-20T19:55:03.348Z,1009.03
2023-11-20T20:00:06.483Z,1008.96
2023-11-20T20:05:03.416Z,1009.05
2023-11-20T20:10:06.302Z,1009.01
2023-11-20T20:15:03.208Z,1009.08
2023-11-20T20:20:04.129Z,1009.02
2023-11-20T20:25:03.198Z,1008.98
2023-11-20T20:30:04.057Z,1009.03
2023-11-20T20:35:03.492Z,1008.97
2023-11-20T20:40:06.436Z,1008.94
2023-11-20T20:45:03.164Z,1008.94
2023-11-20T20:50:08.964Z,1008.89
2023-11-20T20:55:03.241Z,1008.88
2023-11-20T21:00:04.239Z,1008.93
2023-11-20T21:05:03.129Z,1009.02
2023-11-20T21:10:04.142Z,1009.01
2023-11-20T21:15:03.201Z,1009.08
2023-11-20T21:20:04.053Z,1009.11
2023-11-20T21:25:03.413Z,1009.06
2023-11-20T21:30:04.040Z,1009.05
2023-11-20T21:35:04.457Z,1009.04
2023-11-20T21:40:04.424Z,1009.02
2023-11-20T21:45:03.099Z,1009.08
2023-11-20T21:50:04.107Z,1009.04
2023-11-20T21:55:03.248Z,1009.02
2023-11-20T22:00:04.041Z,1009.03
2023-11-20T22:05:03.160Z,1008.99
2023-11-20T22:10:06.559Z,1009.05
2023-11-20T22:15:03.169Z,1008.99
2023-11-20T22:20:04.262Z,1009.07
2023-11-20T22:25:03.168Z,1009.09
2023-11-20T22:30:04.801Z,1009.06
2023-11-20T22:35:09.996Z,1009.06
2023-11-20T22:40:04.209Z,1009.1
2023-11-20T22:45:03.298Z,1009.13
2023-11-20T22:50:04.225Z,1009.06
2023-11-20T22:55:03.290Z,1009.06
2023-11-20T23:00:06.581Z,1009.05
2023-11-20T23:05:03.299Z,1009.1
2023-11-20T23:10:04.543Z,1009.1
2023-11-20T23:15:03.189Z,1009.21
2023-11-20T23:20:09.157Z,1009.25
2023-11-20T23:25:10.117Z,1009.18
2023-11-20T23:30:04.138Z,1009.24
2023-11-20T23:35:03.317Z,1009.19
2023-11-20T23:40:04.503Z,1009.27
2023-11-20T23:45:03.421Z,1009.31
2023-11-20T23:50:04.199Z,1009.4
2023-11-20T23:55:03.409Z,1009.43
